Aérodrome :
LOGIN :

S'inscrire | Disclaimer

   EN    FR    IT 

 










Légende :    VFR   VFR Marginal   IFR   IFR Intensif   IFR Très Intensif
Visi : 
Plafond : 
>= 8 km
>= 3000ft
5 à 8 km
1000 à 3000 ft
1500m à 5 km
500 à 1000 ft
800 à 1500m
200 à 500 ft
< 800m
< 200 ft
Symboles :   Orages  Brouillard  Fortes neiges  Fortes précipitations  Vent > 20 kt
SIGMETs :   Divers  Orages  Givrage  Turbulence  Onde Orograph.  Cendres Volcan.







- Altitude de l'aérodrome : 59 ft
- Code IATA : TSF


LIPH - Treviso

DERNIER METAR :
  • 260650Z 03004KT 360V060 CAVOK 18/15 Q1015

METARs EXPIRÉS :
  • 260620Z 02005KT 350V050 CAVOK 18/15 Q1015
  • 260550Z 06004KT CAVOK 17/15 Q1015
  • 260520Z 04003KT CAVOK 17/15 Q1014
  • 260450Z AUTO 05004KT 9999 BKN094/// 17/14 Q1014
  • 260420Z AUTO 04004KT 360V060 9999 BKN095/// BKN180/// 16/15 Q1014

TAF TAF LIPH
Valide du 26 à 06h jusqu'au 27 à 06h UTC


260500Z 2606/2706 VRB05KT 9999 SCT040
TEMPO 2612/2615 SHRA
Pas de NOTAMs connus pour ce terrain.
2 SIGMETs publiés pour la FIR Milano (LIMM) :
 
Turbulence forte
LIMM SIGMET 4 VALID 260430/260830 LIIP
LIMM MILANO FIR SEV TURB FCST W OF LINE N4701 E01047 - N4313 E00914 FL230/360 STNR NC=
Orages noyés dans la masse
LIMM SIGMET 3 VALID 260430/260830 LIIP
LIMM MILANO FIR EMBD TS FCST W OF LINE N4614 E00902 - N4332 E01102 TOP FL360 MOV SW WKN=



MET'MAP, la Météo Aéronautique d'un coup d'oeil ! - Copyright ORBIFLY Décembre 2007 - Disclaimer

ORBIFLY MET'MAP TEAM :

Programmation & Développement : Alexandra Zaïnal
Conception & Développement : Baudouin d'Aumeries
Co-Programmation & Développement : Marc-Olivier Méhu
Soutien technique & logistique : Manuel Goepfert

Contact : metmap@orbifly.com




SOURCES & CREDITS :

   NOAA